Terminal Aerodrome Forecast
Issued by NWS

Home | Current Version | Previous Version | Text Only | Print | Product List | Glossary On
Versions: 1 2 3 4 5 6 7 8 9 10 11 12 13 14 15 16 17 18 19 20 21 22 23 24 25 26 27
000
FTUS41 KRLX 290500
TAFCKB
TAF
KCKB 290533Z 2906/3006 00000KT P6SM SKC
     FM290800 00000KT 4SM BR SKC
     FM290900 00000KT 1SM BR FEW001 FEW200
     FM291000 00000KT 1/2SM FG VV001
     FM291200 00000KT 4SM BR SCT002 SCT200
     FM291300 00000KT P6SM FEW250=

USA.gov is the U.S. government's official web portal to all federal, state and local government web resources and services.